sensor_id;sensor_type;location;lat;lon;timestamp;P1;durP1;ratioP1;P2;durP2;ratioP2
66485;SDS011;53303;47.476;8.084;2022-12-29T00:02:25;7.78;;;2.00;;
66485;SDS011;53303;47.476;8.084;2022-12-29T00:04:52;7.72;;;1.98;;
66485;SDS011;53303;47.476;8.084;2022-12-29T00:07:21;6.32;;;2.17;;
66485;SDS011;53303;47.476;8.084;2022-12-29T00:09:46;12.05;;;2.58;;
66485;SDS011;53303;47.476;8.084;2022-12-29T00:12:16;11.68;;;2.55;;
66485;SDS011;53303;47.476;8.084;2022-12-29T00:14:42;7.70;;;2.00;;
66485;SDS011;53303;47.476;8.084;2022-12-29T00:17:28;9.85;;;1.92;;
66485;SDS011;53303;47.476;8.084;2022-12-29T00:19:57;10.85;;;2.50;;
66485;SDS011;53303;47.476;8.084;2022-12-29T00:22:43;11.40;;;2.33;;
66485;SDS011;53303;47.476;8.084;2022-12-29T00:25:27;8.48;;;2.15;;
66485;SDS011;53303;47.476;8.084;2022-12-29T00:28:11;10.35;;;1.95;;
66485;SDS011;53303;47.476;8.084;2022-12-29T00:30:58;8.15;;;2.47;;
66485;SDS011;53303;47.476;8.084;2022-12-29T00:33:45;12.00;;;2.28;;
66485;SDS011;53303;47.476;8.084;2022-12-29T00:36:34;9.30;;;2.05;;
66485;SDS011;53303;47.476;8.084;2022-12-29T00:39:09;12.90;;;2.58;;
66485;SDS011;53303;47.476;8.084;2022-12-29T00:42:02;8.63;;;1.88;;
66485;SDS011;53303;47.476;8.084;2022-12-29T00:44:49;10.05;;;1.90;;
66485;SDS011;53303;47.476;8.084;2022-12-29T00:47:19;10.10;;;2.22;;
66485;SDS011;53303;47.476;8.084;2022-12-29T00:49:47;8.55;;;2.08;;
66485;SDS011;53303;47.476;8.084;2022-12-29T00:52:14;7.85;;;1.80;;
66485;SDS011;53303;47.476;8.084;2022-12-29T00:54:40;6.05;;;1.90;;
66485;SDS011;53303;47.476;8.084;2022-12-29T00:57:07;10.27;;;2.10;;
66485;SDS011;53303;47.476;8.084;2022-12-29T00:59:38;10.18;;;2.05;;
66485;SDS011;53303;47.476;8.084;2022-12-29T01:02:05;9.93;;;1.90;;
66485;SDS011;53303;47.476;8.084;2022-12-29T01:04:30;10.57;;;2.28;;
66485;SDS011;53303;47.476;8.084;2022-12-29T01:06:59;9.70;;;2.10;;
66485;SDS011;53303;47.476;8.084;2022-12-29T01:09:24;11.25;;;2.40;;
66485;SDS011;53303;47.476;8.084;2022-12-29T01:12:11;9.38;;;1.98;;
66485;SDS011;53303;47.476;8.084;2022-12-29T01:14:37;10.70;;;2.15;;
66485;SDS011;53303;47.476;8.084;2022-12-29T01:17:05;9.43;;;2.10;;
66485;SDS011;53303;47.476;8.084;2022-12-29T01:19:31;9.27;;;2.03;;
66485;SDS011;53303;47.476;8.084;2022-12-29T01:21:59;9.43;;;1.98;;
66485;SDS011;53303;47.476;8.084;2022-12-29T01:24:25;9.77;;;1.70;;
66485;SDS011;53303;47.476;8.084;2022-12-29T01:26:51;7.43;;;1.90;;
66485;SDS011;53303;47.476;8.084;2022-12-29T01:29:19;7.63;;;2.25;;
66485;SDS011;53303;47.476;8.084;2022-12-29T01:31:45;7.90;;;1.80;;
66485;SDS011;53303;47.476;8.084;2022-12-29T01:34:14;9.52;;;1.90;;
66485;SDS011;53303;47.476;8.084;2022-12-29T01:36:39;7.03;;;1.80;;
66485;SDS011;53303;47.476;8.084;2022-12-29T01:39:05;7.38;;;1.95;;
66485;SDS011;53303;47.476;8.084;2022-12-29T01:41:30;8.52;;;1.90;;
66485;SDS011;53303;47.476;8.084;2022-12-29T01:43:57;9.15;;;2.17;;
66485;SDS011;53303;47.476;8.084;2022-12-29T01:46:34;6.40;;;1.80;;
66485;SDS011;53303;47.476;8.084;2022-12-29T01:51:33;8.05;;;1.80;;
66485;SDS011;53303;47.476;8.084;2022-12-29T01:54:07;8.38;;;2.22;;
66485;SDS011;53303;47.476;8.084;2022-12-29T01:56:36;10.65;;;2.78;;
66485;SDS011;53303;47.476;8.084;2022-12-29T01:59:06;6.72;;;1.90;;
66485;SDS011;53303;47.476;8.084;2022-12-29T02:01:36;8.70;;;2.17;;
66485;SDS011;53303;47.476;8.084;2022-12-29T02:04:04;6.53;;;2.20;;
66485;SDS011;53303;47.476;8.084;2022-12-29T02:06:34;6.10;;;2.10;;
66485;SDS011;53303;47.476;8.084;2022-12-29T02:09:06;6.93;;;1.70;;
66485;SDS011;53303;47.476;8.084;2022-12-29T02:11:36;5.50;;;1.65;;
66485;SDS011;53303;47.476;8.084;2022-12-29T02:14:13;6.13;;;1.92;;
66485;SDS011;53303;47.476;8.084;2022-12-29T02:27:34;7.03;;;1.95;;
66485;SDS011;53303;47.476;8.084;2022-12-29T02:33:15;6.75;;;1.52;;
66485;SDS011;53303;47.476;8.084;2022-12-29T02:39:10;6.20;;;1.67;;
66485;SDS011;53303;47.476;8.084;2022-12-29T02:44:30;8.00;;;1.88;;
66485;SDS011;53303;47.476;8.084;2022-12-29T02:47:16;8.55;;;2.17;;
66485;SDS011;53303;47.476;8.084;2022-12-29T02:49:46;7.00;;;1.83;;
66485;SDS011;53303;47.476;8.084;2022-12-29T02:52:23;4.97;;;1.38;;
66485;SDS011;53303;47.476;8.084;2022-12-29T02:54:54;7.63;;;1.90;;
66485;SDS011;53303;47.476;8.084;2022-12-29T02:59:45;5.85;;;1.90;;
66485;SDS011;53303;47.476;8.084;2022-12-29T03:02:33;6.32;;;1.80;;
66485;SDS011;53303;47.476;8.084;2022-12-29T03:21:18;4.05;;;1.60;;
66485;SDS011;53303;47.476;8.084;2022-12-29T03:24:11;6.90;;;2.05;;
66485;SDS011;53303;47.476;8.084;2022-12-29T03:26:40;4.13;;;1.50;;
66485;SDS011;53303;47.476;8.084;2022-12-29T03:29:10;6.57;;;1.73;;
66485;SDS011;53303;47.476;8.084;2022-12-29T03:31:40;4.40;;;1.50;;
66485;SDS011;53303;47.476;8.084;2022-12-29T03:34:07;6.22;;;1.55;;
66485;SDS011;53303;47.476;8.084;2022-12-29T03:36:44;4.90;;;1.80;;
66485;SDS011;53303;47.476;8.084;2022-12-29T03:39:14;6.82;;;1.50;;
66485;SDS011;53303;47.476;8.084;2022-12-29T03:41:42;6.05;;;1.67;;
66485;SDS011;53303;47.476;8.084;2022-12-29T03:44:10;4.75;;;1.33;;
66485;SDS011;53303;47.476;8.084;2022-12-29T03:46:39;6.00;;;2.10;;
66485;SDS011;53303;47.476;8.084;2022-12-29T03:49:05;5.47;;;1.60;;
66485;SDS011;53303;47.476;8.084;2022-12-29T03:51:33;4.95;;;1.60;;
66485;SDS011;53303;47.476;8.084;2022-12-29T03:54:03;6.57;;;2.00;;
66485;SDS011;53303;47.476;8.084;2022-12-29T03:56:29;4.43;;;1.70;;
66485;SDS011;53303;47.476;8.084;2022-12-29T03:58:54;6.20;;;1.88;;
66485;SDS011;53303;47.476;8.084;2022-12-29T04:01:22;6.05;;;2.00;;
66485;SDS011;53303;47.476;8.084;2022-12-29T04:03:48;6.18;;;1.60;;
66485;SDS011;53303;47.476;8.084;2022-12-29T04:06:13;4.70;;;1.50;;
66485;SDS011;53303;47.476;8.084;2022-12-29T04:08:41;5.53;;;1.40;;
66485;SDS011;53303;47.476;8.084;2022-12-29T04:11:09;6.93;;;1.90;;
66485;SDS011;53303;47.476;8.084;2022-12-29T04:13:34;6.82;;;1.83;;
66485;SDS011;53303;47.476;8.084;2022-12-29T04:15:59;5.07;;;1.70;;
66485;SDS011;53303;47.476;8.084;2022-12-29T04:18:25;7.43;;;1.85;;
66485;SDS011;53303;47.476;8.084;2022-12-29T04:20:53;5.60;;;1.77;;
66485;SDS011;53303;47.476;8.084;2022-12-29T04:23:31;8.05;;;1.77;;
66485;SDS011;53303;47.476;8.084;2022-12-29T04:25:58;7.95;;;2.22;;
66485;SDS011;53303;47.476;8.084;2022-12-29T04:28:26;7.85;;;1.85;;
66485;SDS011;53303;47.476;8.084;2022-12-29T04:30:54;8.82;;;1.98;;
66485;SDS011;53303;47.476;8.084;2022-12-29T04:33:20;4.70;;;1.90;;
66485;SDS011;53303;47.476;8.084;2022-12-29T04:35:53;7.32;;;2.10;;
66485;SDS011;53303;47.476;8.084;2022-12-29T04:38:19;8.95;;;2.25;;
66485;SDS011;53303;47.476;8.084;2022-12-29T04:40:45;6.13;;;2.03;;
66485;SDS011;53303;47.476;8.084;2022-12-29T04:43:11;8.00;;;2.00;;
66485;SDS011;53303;47.476;8.084;2022-12-29T04:45:38;4.60;;;1.75;;
66485;SDS011;53303;47.476;8.084;2022-12-29T04:48:04;7.53;;;2.03;;
66485;SDS011;53303;47.476;8.084;2022-12-29T04:50:30;4.93;;;1.70;;
66485;SDS011;53303;47.476;8.084;2022-12-29T04:52:58;5.47;;;2.28;;
66485;SDS011;53303;47.476;8.084;2022-12-29T04:55:26;5.00;;;1.80;;
66485;SDS011;53303;47.476;8.084;2022-12-29T04:57:51;5.10;;;2.00;;
66485;SDS011;53303;47.476;8.084;2022-12-29T05:00:19;5.20;;;1.60;;
66485;SDS011;53303;47.476;8.084;2022-12-29T05:02:45;7.25;;;1.85;;
66485;SDS011;53303;47.476;8.084;2022-12-29T05:05:13;12.07;;;2.30;;
66485;SDS011;53303;47.476;8.084;2022-12-29T05:07:39;12.32;;;2.45;;
66485;SDS011;53303;47.476;8.084;2022-12-29T05:10:07;8.18;;;2.50;;
66485;SDS011;53303;47.476;8.084;2022-12-29T05:12:33;13.02;;;2.45;;
66485;SDS011;53303;47.476;8.084;2022-12-29T05:14:59;8.38;;;2.00;;
66485;SDS011;53303;47.476;8.084;2022-12-29T05:17:25;7.57;;;2.05;;
66485;SDS011;53303;47.476;8.084;2022-12-29T05:19:53;6.82;;;2.40;;
66485;SDS011;53303;47.476;8.084;2022-12-29T05:22:18;10.10;;;2.25;;
66485;SDS011;53303;47.476;8.084;2022-12-29T05:24:44;6.88;;;2.50;;
66485;SDS011;53303;47.476;8.084;2022-12-29T05:27:12;9.23;;;2.38;;
66485;SDS011;53303;47.476;8.084;2022-12-29T05:29:37;9.90;;;2.50;;
66485;SDS011;53303;47.476;8.084;2022-12-29T05:32:03;8.15;;;2.50;;
66485;SDS011;53303;47.476;8.084;2022-12-29T05:34:31;7.88;;;2.55;;
66485;SDS011;53303;47.476;8.084;2022-12-29T05:36:59;10.35;;;2.47;;
66485;SDS011;53303;47.476;8.084;2022-12-29T05:39:24;7.38;;;2.33;;
66485;SDS011;53303;47.476;8.084;2022-12-29T05:41:52;11.23;;;2.38;;
66485;SDS011;53303;47.476;8.084;2022-12-29T05:44:20;11.77;;;2.88;;
66485;SDS011;53303;47.476;8.084;2022-12-29T05:46:47;9.25;;;2.45;;
66485;SDS011;53303;47.476;8.084;2022-12-29T05:49:13;8.30;;;2.72;;
66485;SDS011;53303;47.476;8.084;2022-12-29T05:51:43;10.38;;;2.63;;
66485;SDS011;53303;47.476;8.084;2022-12-29T05:54:08;7.47;;;2.72;;
66485;SDS011;53303;47.476;8.084;2022-12-29T05:56:36;10.40;;;3.00;;
66485;SDS011;53303;47.476;8.084;2022-12-29T05:59:01;6.82;;;2.40;;
66485;SDS011;53303;47.476;8.084;2022-12-29T06:01:27;7.93;;;2.92;;
66485;SDS011;53303;47.476;8.084;2022-12-29T06:03:52;7.70;;;2.80;;
66485;SDS011;53303;47.476;8.084;2022-12-29T06:06:18;6.40;;;2.60;;
66485;SDS011;53303;47.476;8.084;2022-12-29T06:08:43;8.02;;;2.35;;
66485;SDS011;53303;47.476;8.084;2022-12-29T06:11:08;8.45;;;2.58;;
66485;SDS011;53303;47.476;8.084;2022-12-29T06:13:37;8.63;;;2.88;;
66485;SDS011;53303;47.476;8.084;2022-12-29T06:16:05;6.60;;;2.53;;
66485;SDS011;53303;47.476;8.084;2022-12-29T06:18:35;7.88;;;2.47;;
66485;SDS011;53303;47.476;8.084;2022-12-29T06:21:03;6.43;;;2.35;;
66485;SDS011;53303;47.476;8.084;2022-12-29T06:23:33;10.80;;;2.92;;
66485;SDS011;53303;47.476;8.084;2022-12-29T06:25:58;6.95;;;2.70;;
66485;SDS011;53303;47.476;8.084;2022-12-29T06:28:23;7.38;;;2.33;;
66485;SDS011;53303;47.476;8.084;2022-12-29T06:30:51;6.60;;;3.10;;
66485;SDS011;53303;47.476;8.084;2022-12-29T06:33:16;6.78;;;3.03;;
66485;SDS011;53303;47.476;8.084;2022-12-29T06:35:42;7.25;;;2.70;;
66485;SDS011;53303;47.476;8.084;2022-12-29T06:38:10;8.98;;;2.90;;
66485;SDS011;53303;47.476;8.084;2022-12-29T06:40:38;7.43;;;2.80;;
66485;SDS011;53303;47.476;8.084;2022-12-29T06:43:06;7.90;;;2.60;;
66485;SDS011;53303;47.476;8.084;2022-12-29T06:45:33;6.95;;;2.33;;
66485;SDS011;53303;47.476;8.084;2022-12-29T06:47:59;7.28;;;2.72;;
66485;SDS011;53303;47.476;8.084;2022-12-29T06:50:24;8.45;;;2.55;;
66485;SDS011;53303;47.476;8.084;2022-12-29T06:52:55;7.43;;;2.55;;
66485;SDS011;53303;47.476;8.084;2022-12-29T06:55:23;7.43;;;2.35;;
66485;SDS011;53303;47.476;8.084;2022-12-29T06:57:53;9.40;;;2.80;;
66485;SDS011;53303;47.476;8.084;2022-12-29T07:00:20;6.88;;;2.40;;
66485;SDS011;53303;47.476;8.084;2022-12-29T07:02:47;7.75;;;3.10;;
66485;SDS011;53303;47.476;8.084;2022-12-29T07:05:13;7.45;;;2.40;;
66485;SDS011;53303;47.476;8.084;2022-12-29T07:07:38;7.35;;;2.58;;
66485;SDS011;53303;47.476;8.084;2022-12-29T07:10:04;9.15;;;2.80;;
66485;SDS011;53303;47.476;8.084;2022-12-29T07:12:32;6.55;;;2.40;;
66485;SDS011;53303;47.476;8.084;2022-12-29T07:15:00;6.20;;;2.60;;
66485;SDS011;53303;47.476;8.084;2022-12-29T07:17:25;8.15;;;2.92;;
66485;SDS011;53303;47.476;8.084;2022-12-29T07:19:53;6.85;;;2.70;;
66485;SDS011;53303;47.476;8.084;2022-12-29T07:22:21;6.53;;;2.25;;
66485;SDS011;53303;47.476;8.084;2022-12-29T07:24:48;6.00;;;2.40;;
66485;SDS011;53303;47.476;8.084;2022-12-29T07:27:18;8.95;;;3.08;;
66485;SDS011;53303;47.476;8.084;2022-12-29T07:29:43;9.25;;;2.53;;
66485;SDS011;53303;47.476;8.084;2022-12-29T07:32:09;7.47;;;2.80;;
66485;SDS011;53303;47.476;8.084;2022-12-29T07:34:36;8.25;;;2.72;;
66485;SDS011;53303;47.476;8.084;2022-12-29T07:37:04;8.38;;;2.80;;
66485;SDS011;53303;47.476;8.084;2022-12-29T07:39:30;8.82;;;2.70;;
66485;SDS011;53303;47.476;8.084;2022-12-29T07:41:56;7.07;;;2.70;;
66485;SDS011;53303;47.476;8.084;2022-12-29T07:44:21;7.13;;;2.50;;
66485;SDS011;53303;47.476;8.084;2022-12-29T07:46:46;7.40;;;2.33;;
66485;SDS011;53303;47.476;8.084;2022-12-29T07:49:14;7.32;;;2.58;;
66485;SDS011;53303;47.476;8.084;2022-12-29T07:51:39;6.50;;;2.50;;
66485;SDS011;53303;47.476;8.084;2022-12-29T07:54:09;6.85;;;2.75;;
66485;SDS011;53303;47.476;8.084;2022-12-29T07:56:39;10.80;;;2.83;;
66485;SDS011;53303;47.476;8.084;2022-12-29T07:59:07;7.10;;;2.55;;
66485;SDS011;53303;47.476;8.084;2022-12-29T08:01:39;6.88;;;2.42;;
66485;SDS011;53303;47.476;8.084;2022-12-29T08:04:04;7.47;;;2.55;;
66485;SDS011;53303;47.476;8.084;2022-12-29T08:06:30;6.38;;;2.80;;
66485;SDS011;53303;47.476;8.084;2022-12-29T08:08:58;5.75;;;2.45;;
66485;SDS011;53303;47.476;8.084;2022-12-29T08:11:25;5.63;;;2.40;;
66485;SDS011;53303;47.476;8.084;2022-12-29T08:13:51;7.00;;;2.47;;
66485;SDS011;53303;47.476;8.084;2022-12-29T08:16:18;7.40;;;2.88;;
66485;SDS011;53303;47.476;8.084;2022-12-29T08:18:44;6.85;;;2.78;;
66485;SDS011;53303;47.476;8.084;2022-12-29T08:21:10;7.10;;;2.55;;
66485;SDS011;53303;47.476;8.084;2022-12-29T08:23:36;7.28;;;2.28;;
66485;SDS011;53303;47.476;8.084;2022-12-29T08:26:02;6.13;;;2.55;;
66485;SDS011;53303;47.476;8.084;2022-12-29T08:28:29;5.93;;;2.40;;
66485;SDS011;53303;47.476;8.084;2022-12-29T08:30:58;5.45;;;2.47;;
66485;SDS011;53303;47.476;8.084;2022-12-29T08:33:27;5.50;;;2.45;;
66485;SDS011;53303;47.476;8.084;2022-12-29T08:35:59;7.18;;;2.60;;
66485;SDS011;53303;47.476;8.084;2022-12-29T08:38:28;9.05;;;2.78;;
66485;SDS011;53303;47.476;8.084;2022-12-29T08:40:54;5.53;;;2.53;;
66485;SDS011;53303;47.476;8.084;2022-12-29T08:43:22;5.95;;;2.30;;
66485;SDS011;53303;47.476;8.084;2022-12-29T08:45:47;5.35;;;2.40;;
66485;SDS011;53303;47.476;8.084;2022-12-29T08:48:12;5.75;;;2.63;;
66485;SDS011;53303;47.476;8.084;2022-12-29T08:50:43;6.45;;;2.55;;
66485;SDS011;53303;47.476;8.084;2022-12-29T08:53:14;5.88;;;2.53;;
66485;SDS011;53303;47.476;8.084;2022-12-29T08:55:44;8.38;;;2.97;;
66485;SDS011;53303;47.476;8.084;2022-12-29T08:58:15;7.05;;;2.50;;
66485;SDS011;53303;47.476;8.084;2022-12-29T09:00:43;5.57;;;2.40;;
66485;SDS011;53303;47.476;8.084;2022-12-29T09:03:08;5.57;;;2.50;;
66485;SDS011;53303;47.476;8.084;2022-12-29T09:05:34;7.28;;;2.88;;
66485;SDS011;53303;47.476;8.084;2022-12-29T09:07:59;5.88;;;2.75;;
66485;SDS011;53303;47.476;8.084;2022-12-29T09:10:25;6.43;;;2.22;;
66485;SDS011;53303;47.476;8.084;2022-12-29T09:12:52;6.57;;;2.30;;
66485;SDS011;53303;47.476;8.084;2022-12-29T09:15:18;7.93;;;2.60;;
66485;SDS011;53303;47.476;8.084;2022-12-29T09:17:45;8.20;;;2.80;;
66485;SDS011;53303;47.476;8.084;2022-12-29T09:20:12;5.95;;;2.38;;
66485;SDS011;53303;47.476;8.084;2022-12-29T09:22:42;6.85;;;2.97;;
66485;SDS011;53303;47.476;8.084;2022-12-29T09:25:08;5.78;;;2.65;;
66485;SDS011;53303;47.476;8.084;2022-12-29T09:27:37;6.45;;;2.42;;
66485;SDS011;53303;47.476;8.084;2022-12-29T09:30:03;5.45;;;2.38;;
66485;SDS011;53303;47.476;8.084;2022-12-29T09:32:33;6.65;;;2.60;;
66485;SDS011;53303;47.476;8.084;2022-12-29T09:34:59;5.78;;;2.25;;
66485;SDS011;53303;47.476;8.084;2022-12-29T09:37:30;5.90;;;2.70;;
66485;SDS011;53303;47.476;8.084;2022-12-29T09:39:58;8.43;;;2.83;;
66485;SDS011;53303;47.476;8.084;2022-12-29T09:47:50;6.28;;;2.50;;
66485;SDS011;53303;47.476;8.084;2022-12-29T09:52:47;6.20;;;2.28;;
66485;SDS011;53303;47.476;8.084;2022-12-29T09:55:19;5.65;;;2.13;;
66485;SDS011;53303;47.476;8.084;2022-12-29T09:57:58;5.88;;;2.00;;
66485;SDS011;53303;47.476;8.084;2022-12-29T10:00:36;5.70;;;2.45;;
66485;SDS011;53303;47.476;8.084;2022-12-29T10:03:06;5.30;;;2.53;;
66485;SDS011;53303;47.476;8.084;2022-12-29T10:08:40;6.07;;;2.45;;
66485;SDS011;53303;47.476;8.084;2022-12-29T10:24:43;6.07;;;2.38;;
66485;SDS011;53303;47.476;8.084;2022-12-29T10:27:12;6.70;;;2.55;;
66485;SDS011;53303;47.476;8.084;2022-12-29T10:29:48;5.53;;;2.33;;
66485;SDS011;53303;47.476;8.084;2022-12-29T10:35:05;6.07;;;2.35;;
66485;SDS011;53303;47.476;8.084;2022-12-29T10:42:53;4.78;;;2.10;;
66485;SDS011;53303;47.476;8.084;2022-12-29T10:45:25;5.20;;;2.22;;
66485;SDS011;53303;47.476;8.084;2022-12-29T10:47:57;6.63;;;2.50;;
66485;SDS011;53303;47.476;8.084;2022-12-29T10:50:31;5.25;;;2.28;;
66485;SDS011;53303;47.476;8.084;2022-12-29T10:53:02;5.35;;;2.47;;
66485;SDS011;53303;47.476;8.084;2022-12-29T10:55:32;5.32;;;2.50;;
66485;SDS011;53303;47.476;8.084;2022-12-29T10:58:02;5.05;;;2.10;;
66485;SDS011;53303;47.476;8.084;2022-12-29T11:00:38;7.90;;;2.25;;
66485;SDS011;53303;47.476;8.084;2022-12-29T11:03:18;4.72;;;2.08;;
66485;SDS011;53303;47.476;8.084;2022-12-29T11:06:11;4.90;;;2.00;;
66485;SDS011;53303;47.476;8.084;2022-12-29T11:08:53;5.68;;;2.00;;
66485;SDS011;53303;47.476;8.084;2022-12-29T11:11:34;6.53;;;2.10;;
66485;SDS011;53303;47.476;8.084;2022-12-29T11:14:17;5.78;;;2.30;;
66485;SDS011;53303;47.476;8.084;2022-12-29T11:16:57;5.72;;;2.35;;
66485;SDS011;53303;47.476;8.084;2022-12-29T11:19:27;4.32;;;2.03;;
66485;SDS011;53303;47.476;8.084;2022-12-29T11:21:56;5.68;;;2.20;;
66485;SDS011;53303;47.476;8.084;2022-12-29T11:27:25;5.68;;;2.22;;
66485;SDS011;53303;47.476;8.084;2022-12-29T11:29:51;4.63;;;2.00;;
66485;SDS011;53303;47.476;8.084;2022-12-29T11:32:25;5.15;;;2.00;;
66485;SDS011;53303;47.476;8.084;2022-12-29T11:34:57;6.05;;;2.30;;
66485;SDS011;53303;47.476;8.084;2022-12-29T11:39:55;6.03;;;1.83;;
66485;SDS011;53303;47.476;8.084;2022-12-29T11:42:24;6.35;;;2.08;;
66485;SDS011;53303;47.476;8.084;2022-12-29T11:45:22;6.88;;;2.42;;
66485;SDS011;53303;47.476;8.084;2022-12-29T11:47:52;5.63;;;2.55;;
66485;SDS011;53303;47.476;8.084;2022-12-29T11:50:27;5.78;;;2.20;;
66485;SDS011;53303;47.476;8.084;2022-12-29T11:53:00;6.15;;;2.25;;
66485;SDS011;53303;47.476;8.084;2022-12-29T11:55:28;7.38;;;2.65;;
66485;SDS011;53303;47.476;8.084;2022-12-29T11:57:56;6.97;;;2.40;;
66485;SDS011;53303;47.476;8.084;2022-12-29T12:00:24;5.50;;;2.50;;
66485;SDS011;53303;47.476;8.084;2022-12-29T12:05:43;6.15;;;2.33;;
66485;SDS011;53303;47.476;8.084;2022-12-29T12:16:36;5.40;;;1.90;;
66485;SDS011;53303;47.476;8.084;2022-12-29T12:21:53;6.00;;;2.00;;
66485;SDS011;53303;47.476;8.084;2022-12-29T12:24:31;4.53;;;2.00;;
66485;SDS011;53303;47.476;8.084;2022-12-29T12:27:26;5.82;;;2.30;;
66485;SDS011;53303;47.476;8.084;2022-12-29T12:29:58;5.68;;;2.38;;
66485;SDS011;53303;47.476;8.084;2022-12-29T12:35:40;7.18;;;2.25;;
66485;SDS011;53303;47.476;8.084;2022-12-29T12:40:59;6.45;;;2.20;;
66485;SDS011;53303;47.476;8.084;2022-12-29T12:49:34;6.93;;;2.20;;
66485;SDS011;53303;47.476;8.084;2022-12-29T12:52:17;5.28;;;2.20;;
66485;SDS011;53303;47.476;8.084;2022-12-29T12:57:36;8.15;;;2.20;;
66485;SDS011;53303;47.476;8.084;2022-12-29T13:00:14;4.28;;;2.03;;
66485;SDS011;53303;47.476;8.084;2022-12-29T13:19:20;6.18;;;2.00;;
66485;SDS011;53303;47.476;8.084;2022-12-29T13:22:05;4.95;;;1.73;;
66485;SDS011;53303;47.476;8.084;2022-12-29T13:32:20;6.32;;;2.25;;
66485;SDS011;53303;47.476;8.084;2022-12-29T13:35:08;5.57;;;2.03;;
66485;SDS011;53303;47.476;8.084;2022-12-29T13:37:50;4.70;;;2.15;;
66485;SDS011;53303;47.476;8.084;2022-12-29T13:40:22;6.28;;;2.20;;
66485;SDS011;53303;47.476;8.084;2022-12-29T13:42:53;7.15;;;2.10;;
66485;SDS011;53303;47.476;8.084;2022-12-29T13:45:24;6.07;;;1.92;;
66485;SDS011;53303;47.476;8.084;2022-12-29T13:47:55;5.43;;;2.15;;
66485;SDS011;53303;47.476;8.084;2022-12-29T13:50:26;5.25;;;1.60;;
66485;SDS011;53303;47.476;8.084;2022-12-29T13:55:59;4.82;;;1.90;;
66485;SDS011;53303;47.476;8.084;2022-12-29T13:58:36;5.72;;;2.03;;
66485;SDS011;53303;47.476;8.084;2022-12-29T14:04:28;5.47;;;2.00;;
66485;SDS011;53303;47.476;8.084;2022-12-29T14:07:05;7.80;;;2.17;;
66485;SDS011;53303;47.476;8.084;2022-12-29T14:09:43;5.38;;;1.85;;
66485;SDS011;53303;47.476;8.084;2022-12-29T14:12:27;4.82;;;2.10;;
66485;SDS011;53303;47.476;8.084;2022-12-29T14:15:04;5.35;;;2.13;;
66485;SDS011;53303;47.476;8.084;2022-12-29T14:17:30;6.43;;;1.90;;
66485;SDS011;53303;47.476;8.084;2022-12-29T14:20:02;6.75;;;2.40;;
66485;SDS011;53303;47.476;8.084;2022-12-29T14:22:32;6.68;;;2.10;;
66485;SDS011;53303;47.476;8.084;2022-12-29T14:25:00;3.90;;;1.60;;
66485;SDS011;53303;47.476;8.084;2022-12-29T14:29:52;5.27;;;2.13;;
66485;SDS011;53303;47.476;8.084;2022-12-29T14:35:00;5.00;;;1.90;;
66485;SDS011;53303;47.476;8.084;2022-12-29T14:38:22;6.10;;;2.05;;
66485;SDS011;53303;47.476;8.084;2022-12-29T14:40:53;7.43;;;2.28;;
66485;SDS011;53303;47.476;8.084;2022-12-29T14:43:51;6.05;;;2.35;;
66485;SDS011;53303;47.476;8.084;2022-12-29T14:46:19;6.30;;;2.22;;
66485;SDS011;53303;47.476;8.084;2022-12-29T14:48:47;6.28;;;2.60;;
66485;SDS011;53303;47.476;8.084;2022-12-29T14:51:30;5.88;;;2.03;;
66485;SDS011;53303;47.476;8.084;2022-12-29T14:53:59;5.43;;;2.25;;
66485;SDS011;53303;47.476;8.084;2022-12-29T14:56:28;6.18;;;2.13;;
66485;SDS011;53303;47.476;8.084;2022-12-29T14:59:02;5.75;;;2.03;;
66485;SDS011;53303;47.476;8.084;2022-12-29T15:01:38;5.88;;;1.75;;
66485;SDS011;53303;47.476;8.084;2022-12-29T15:04:21;5.07;;;2.20;;
66485;SDS011;53303;47.476;8.084;2022-12-29T15:06:52;5.20;;;1.92;;
66485;SDS011;53303;47.476;8.084;2022-12-29T15:09:26;5.60;;;1.90;;
66485;SDS011;53303;47.476;8.084;2022-12-29T15:11:59;6.00;;;2.10;;
66485;SDS011;53303;47.476;8.084;2022-12-29T15:17:01;7.03;;;2.20;;
66485;SDS011;53303;47.476;8.084;2022-12-29T15:19:35;5.05;;;2.00;;
66485;SDS011;53303;47.476;8.084;2022-12-29T15:22:03;5.72;;;1.75;;
66485;SDS011;53303;47.476;8.084;2022-12-29T15:24:29;5.20;;;2.15;;
66485;SDS011;53303;47.476;8.084;2022-12-29T15:26:57;5.88;;;2.25;;
66485;SDS011;53303;47.476;8.084;2022-12-29T15:32:14;5.05;;;1.73;;
66485;SDS011;53303;47.476;8.084;2022-12-29T15:34:43;10.10;;;2.20;;
66485;SDS011;53303;47.476;8.084;2022-12-29T15:37:54;5.30;;;2.10;;
66485;SDS011;53303;47.476;8.084;2022-12-29T15:40:04;5.22;;;1.90;;
66485;SDS011;53303;47.476;8.084;2022-12-29T15:42:33;5.63;;;2.00;;
66485;SDS011;53303;47.476;8.084;2022-12-29T15:45:10;6.50;;;2.30;;
66485;SDS011;53303;47.476;8.084;2022-12-29T15:47:40;6.50;;;2.28;;
66485;SDS011;53303;47.476;8.084;2022-12-29T15:50:12;9.55;;;2.22;;
66485;SDS011;53303;47.476;8.084;2022-12-29T15:52:41;5.20;;;2.30;;
66485;SDS011;53303;47.476;8.084;2022-12-29T15:55:10;6.45;;;1.98;;
66485;SDS011;53303;47.476;8.084;2022-12-29T15:57:47;11.35;;;2.50;;
66485;SDS011;53303;47.476;8.084;2022-12-29T16:00:26;10.73;;;2.30;;
66485;SDS011;53303;47.476;8.084;2022-12-29T16:02:54;9.63;;;2.28;;
66485;SDS011;53303;47.476;8.084;2022-12-29T16:05:21;13.88;;;2.40;;
66485;SDS011;53303;47.476;8.084;2022-12-29T16:10:47;16.38;;;3.22;;
66485;SDS011;53303;47.476;8.084;2022-12-29T16:15:47;10.85;;;2.42;;
66485;SDS011;53303;47.476;8.084;2022-12-29T16:18:21;14.38;;;2.45;;
66485;SDS011;53303;47.476;8.084;2022-12-29T16:20:50;11.45;;;2.78;;
66485;SDS011;53303;47.476;8.084;2022-12-29T16:23:21;12.75;;;2.40;;
66485;SDS011;53303;47.476;8.084;2022-12-29T16:25:57;9.63;;;2.20;;
66485;SDS011;53303;47.476;8.084;2022-12-29T16:28:23;10.13;;;2.08;;
66485;SDS011;53303;47.476;8.084;2022-12-29T16:31:06;6.95;;;2.38;;
66485;SDS011;53303;47.476;8.084;2022-12-29T16:33:45;9.18;;;2.17;;
66485;SDS011;53303;47.476;8.084;2022-12-29T16:39:07;6.65;;;2.28;;
66485;SDS011;53303;47.476;8.084;2022-12-29T16:41:36;8.57;;;2.25;;
66485;SDS011;53303;47.476;8.084;2022-12-29T16:44:11;7.10;;;2.20;;
66485;SDS011;53303;47.476;8.084;2022-12-29T16:49:25;7.30;;;2.17;;
66485;SDS011;53303;47.476;8.084;2022-12-29T16:51:54;7.20;;;2.00;;
66485;SDS011;53303;47.476;8.084;2022-12-29T16:54:33;8.40;;;1.90;;
66485;SDS011;53303;47.476;8.084;2022-12-29T16:57:01;8.70;;;2.30;;
66485;SDS011;53303;47.476;8.084;2022-12-29T17:01:56;8.05;;;2.40;;
66485;SDS011;53303;47.476;8.084;2022-12-29T17:04:24;8.27;;;2.00;;
66485;SDS011;53303;47.476;8.084;2022-12-29T17:06:49;5.85;;;1.90;;
66485;SDS011;53303;47.476;8.084;2022-12-29T17:11:44;7.60;;;2.00;;
66485;SDS011;53303;47.476;8.084;2022-12-29T17:17:50;5.63;;;1.85;;
66485;SDS011;53303;47.476;8.084;2022-12-29T17:20:02;5.80;;;2.00;;
66485;SDS011;53303;47.476;8.084;2022-12-29T17:22:33;5.60;;;1.88;;
66485;SDS011;53303;47.476;8.084;2022-12-29T17:25:00;4.97;;;1.45;;
66485;SDS011;53303;47.476;8.084;2022-12-29T17:27:42;8.73;;;1.85;;
66485;SDS011;53303;47.476;8.084;2022-12-29T17:30:19;6.85;;;1.95;;
66485;SDS011;53303;47.476;8.084;2022-12-29T17:32:50;7.47;;;1.92;;
66485;SDS011;53303;47.476;8.084;2022-12-29T17:35:18;4.97;;;1.70;;
66485;SDS011;53303;47.476;8.084;2022-12-29T17:37:48;6.32;;;2.15;;
66485;SDS011;53303;47.476;8.084;2022-12-29T17:40:20;100.55;;;9.88;;
66485;SDS011;53303;47.476;8.084;2022-12-29T17:42:54;85.50;;;8.90;;
66485;SDS011;53303;47.476;8.084;2022-12-29T17:47:57;67.28;;;6.53;;
66485;SDS011;53303;47.476;8.084;2022-12-29T17:50:26;85.00;;;8.85;;
66485;SDS011;53303;47.476;8.084;2022-12-29T17:52:54;102.20;;;10.40;;
66485;SDS011;53303;47.476;8.084;2022-12-29T17:55:26;92.63;;;9.38;;
66485;SDS011;53303;47.476;8.084;2022-12-29T17:57:55;76.55;;;9.10;;